Terminal Aerodrome Forecast
Issued by NWS Mobile, AL

Home | Current Version | Previous Version | Text Only | Print | Product List | Glossary On
Versions: 1 2 3 4 5 6 7 8 9 10 11 12 13
000
FTUS44 KMOB 180556
TAFMOB
TAF
KMOB 180556Z 1806/1906 24004KT P6SM SKC
     FM181500 29007KT P6SM SCT030 SCT250
     FM181900 25007KT P6SM VCTS SCT040CB SCT250
     FM190000 25003KT P6SM FEW040 SCT250=

USA.gov is the U.S. government's official web portal to all federal, state and local government web resources and services.